Time;durP1;ratioP1;P1;durP2;ratioP2;P2;SDS_P1;SDS_P2;PMS_P1;PMS_P2;Temp;Humidity;BMP_temperature;BMP_pressure;BME280_temperature;BME280_humidity;BME280_pressure;Samples;Min_cycle;Max_cycle;Signal;HPM_P1;HPM_P2
2022/03/31 00:00:48;;;;;;;1.70;0.25;;;4.80;99.90;;;;;;5093989;28;20047;-70
2022/03/31 00:03:19;;;;;;;1.05;0.20;;;4.80;99.90;;;;;;5092839;28;20040;-70
2022/03/31 00:05:46;;;;;;;0.82;0.30;;;5.10;99.90;;;;;;5075355;28;20048;-70
2022/03/31 00:08:13;;;;;;;2.72;0.30;;;4.70;99.90;;;;;;5094395;28;20380;-70
2022/03/31 00:10:42;;;;;;;0.80;0.30;;;4.70;99.90;;;;;;5092860;28;20056;-71
2022/03/31 00:13:11;;;;;;;1.98;0.30;;;4.70;99.90;;;;;;5092560;28;20047;-71
2022/03/31 00:15:38;;;;;;;1.67;0.50;;;5.10;99.90;;;;;;5092488;28;20044;-70
2022/03/31 00:18:05;;;;;;;0.90;0.35;;;4.60;99.90;;;;;;5093614;28;20504;-71
2022/03/31 00:20:31;;;;;;;1.63;0.50;;;4.70;99.90;;;;;;5093963;28;20048;-71
2022/03/31 00:22:57;;;;;;;2.90;0.40;;;4.70;99.90;;;;;;5093737;28;20373;-71
2022/03/31 00:25:29;;;;;;;1.27;0.38;;;4.50;99.90;;;;;;5092447;28;20098;-71
2022/03/31 00:27:56;;;;;;;2.25;0.73;;;4.50;99.90;;;;;;5092462;28;20044;-70
2022/03/31 00:30:22;;;;;;;3.38;0.47;;;4.60;99.90;;;;;;5093854;28;20048;-70
2022/03/31 00:32:48;;;;;;;1.92;0.47;;;5.00;99.90;;;;;;5092590;28;20112;-70
2022/03/31 00:35:14;;;;;;;2.20;0.50;;;4.60;99.90;;;;;;5092280;28;20040;-70
2022/03/31 00:37:41;;;;;;;2.75;0.60;;;4.50;99.90;;;;;;5093243;28;20040;-70
2022/03/31 00:40:09;;;;;;;3.30;0.70;;;4.60;99.90;;;;;;5092508;28;20105;-70
2022/03/31 00:42:40;;;;;;;1.63;0.60;;;4.50;99.90;;;;;;5092435;28;20495;-70
2022/03/31 00:45:23;;;;;;;2.33;0.60;;;4.60;99.90;;;;;;5092431;28;20106;-70
2022/03/31 00:47:49;;;;;;;1.80;0.50;;;4.50;99.90;;;;;;5093689;28;20063;-70
2022/03/31 00:50:16;;;;;;;1.67;0.70;;;4.50;99.90;;;;;;5093960;28;20139;-70
2022/03/31 00:52:42;;;;;;;2.67;0.70;;;4.50;99.90;;;;;;5093505;28;20056;-70
2022/03/31 00:55:10;;;;;;;1.15;0.63;;;4.40;99.90;;;;;;5092123;28;20403;-70
2022/03/31 00:57:37;;;;;;;1.58;0.80;;;4.40;99.90;;;;;;5093113;28;20111;-70
2022/03/31 01:00:08;;;;;;;2.33;0.80;;;4.40;99.90;;;;;;5092400;28;20040;-70
2022/03/31 01:02:35;;;;;;;1.92;0.82;;;4.40;99.90;;;;;;5094800;28;20051;-71
2022/03/31 01:05:02;;;;;;;2.75;0.98;;;4.40;99.90;;;;;;5096885;28;20074;-70
2022/03/31 01:07:29;;;;;;;1.95;0.93;;;4.40;99.90;;;;;;5096066;28;20427;-70
2022/03/31 01:09:57;;;;;;;1.77;1.10;;;4.70;99.90;;;;;;5097140;28;20051;-70
2022/03/31 01:12:23;;;;;;;2.25;0.90;;;4.30;99.90;;;;;;5097200;28;20052;-71
2022/03/31 01:15:06;;;;;;;2.67;1.00;;;4.30;99.90;;;;;;5096703;28;20408;-70
2022/03/31 01:17:33;;;;;;;2.67;1.75;;;4.20;99.90;;;;;;5096251;28;20050;-69
2022/03/31 01:19:58;;;;;;;3.35;1.50;;;4.30;99.90;;;;;;5095802;28;20128;-70
2022/03/31 01:22:27;;;;;;;2.10;1.40;;;4.30;99.90;;;;;;5095684;28;20131;-69
2022/03/31 01:24:53;;;;;;;2.92;1.33;;;4.30;99.90;;;;;;5078723;28;20503;-69
2022/03/31 01:27:19;;;;;;;4.85;1.90;;;4.10;99.90;;;;;;5096553;28;20491;-69
2022/03/31 01:29:45;;;;;;;3.47;1.83;;;4.20;99.90;;;;;;5096095;28;20135;-69
2022/03/31 01:32:11;;;;;;;3.40;2.45;;;4.20;99.90;;;;;;5096316;28;20063;-69
2022/03/31 01:34:37;;;;;;;3.22;1.90;;;3.90;99.90;;;;;;5095550;28;20059;-69
2022/03/31 01:37:04;;;;;;;4.47;2.60;;;4.20;99.90;;;;;;5095378;28;20047;-69
2022/03/31 01:39:30;;;;;;;6.43;2.63;;;4.10;99.90;;;;;;5096634;28;20048;-69
2022/03/31 01:41:56;;;;;;;3.65;2.33;;;4.10;99.90;;;;;;5095384;28;20057;-69
2022/03/31 01:44:21;;;;;;;4.30;2.50;;;4.10;99.90;;;;;;5096831;28;20127;-69
2022/03/31 01:46:48;;;;;;;4.05;2.55;;;4.10;99.90;;;;;;5095660;28;20384;-69
2022/03/31 01:49:14;;;;;;;3.35;2.38;;;4.10;99.90;;;;;;5096506;28;20044;-69
2022/03/31 01:51:40;;;;;;;4.95;3.03;;;4.00;99.90;;;;;;5096409;28;20048;-69
2022/03/31 01:54:06;;;;;;;4.93;2.15;;;4.00;99.90;;;;;;5096370;28;20103;-68
2022/03/31 01:56:32;;;;;;;3.47;2.55;;;4.00;99.90;;;;;;5096230;28;20484;-69
2022/03/31 01:58:58;;;;;;;7.03;2.60;;;3.70;99.90;;;;;;5096276;28;20123;-69
2022/03/31 02:01:24;;;;;;;4.38;3.40;;;4.10;99.90;;;;;;5096808;28;20376;-68
2022/03/31 02:03:49;;;;;;;4.43;3.70;;;3.90;99.90;;;;;;5094625;28;20377;-68
2022/03/31 02:06:15;;;;;;;4.97;3.83;;;3.90;99.90;;;;;;5079198;28;20052;-68
2022/03/31 02:08:41;;;;;;;4.38;3.45;;;3.90;99.90;;;;;;5096082;28;20055;-68
2022/03/31 02:11:08;;;;;;;3.92;3.42;;;3.90;99.90;;;;;;5096582;28;20415;-68
2022/03/31 02:13:34;;;;;;;4.40;3.63;;;4.20;99.90;;;;;;5093681;28;20055;-67
2022/03/31 02:16:00;;;;;;;4.13;3.40;;;3.90;99.90;;;;;;5096638;28;20087;-67
2022/03/31 02:18:25;;;;;;;3.10;2.78;;;3.90;99.90;;;;;;5095854;28;20123;-67
2022/03/31 02:20:51;;;;;;;4.35;3.20;;;3.90;99.90;;;;;;5095742;28;20429;-67
2022/03/31 02:23:17;;;;;;;4.30;3.42;;;3.90;99.90;;;;;;5095817;28;20392;-67
2022/03/31 02:25:43;;;;;;;3.47;2.90;;;4.60;99.90;;;;;;5094803;28;20446;-67
2022/03/31 02:28:10;;;;;;;3.85;2.50;;;3.90;99.90;;;;;;5095782;28;20047;-67
2022/03/31 02:30:36;;;;;;;4.72;3.58;;;3.90;99.90;;;;;;5094450;28;20040;-67
2022/03/31 02:33:03;;;;;;;4.57;3.40;;;3.90;99.90;;;;;;5094380;28;20055;-67
2022/03/31 02:35:29;;;;;;;3.17;2.80;;;4.10;99.90;;;;;;5094541;28;20567;-67
2022/03/31 02:37:55;;;;;;;3.33;2.88;;;3.90;99.90;;;;;;5094387;28;20040;-67
2022/03/31 02:40:20;;;;;;;3.53;2.70;;;4.10;99.90;;;;;;5095509;28;20040;-67
2022/03/31 02:42:46;;;;;;;3.90;2.88;;;3.90;99.90;;;;;;5094706;28;20080;-67
2022/03/31 02:45:13;;;;;;;3.15;2.42;;;3.80;99.90;;;;;;5095458;28;20044;-66
2022/03/31 02:47:39;;;;;;;3.22;2.38;;;3.80;99.90;;;;;;5094973;28;20044;-66
2022/03/31 02:50:06;;;;;;;2.72;2.05;;;3.80;99.90;;;;;;5095846;28;20047;-67
2022/03/31 02:55:24;;;;;;;4.15;2.30;;;5.20;99.90;;;;;;5083531;28;20083;-66
2022/03/31 02:57:51;;;;;;;4.35;2.28;;;3.30;99.90;;;;;;5095133;28;20044;-67
2022/03/31 03:00:18;;;;;;;3.08;2.28;;;3.40;99.90;;;;;;5094073;28;20051;-67
2022/03/31 03:02:43;;;;;;;3.78;2.20;;;3.70;99.90;;;;;;5095060;28;20094;-66
2022/03/31 03:05:09;;;;;;;3.85;2.30;;;3.70;99.90;;;;;;5093685;28;20084;-66
2022/03/31 03:07:35;;;;;;;3.28;2.50;;;3.70;99.90;;;;;;5095560;28;20105;-67
2022/03/31 03:10:00;;;;;;;2.97;2.15;;;4.10;99.90;;;;;;5094945;28;20047;-66
2022/03/31 03:12:26;;;;;;;3.65;2.55;;;3.60;99.90;;;;;;5077051;28;20488;-66
2022/03/31 03:14:52;;;;;;;4.10;2.85;;;3.60;99.90;;;;;;5093543;28;20044;-67
2022/03/31 03:17:18;;;;;;;5.15;2.63;;;3.70;99.90;;;;;;5093463;28;20139;-67
2022/03/31 03:19:44;;;;;;;4.05;2.90;;;4.10;99.90;;;;;;5094632;28;20070;-67
2022/03/31 03:22:10;;;;;;;4.80;3.08;;;3.70;99.90;;;;;;5093452;28;20169;-67
2022/03/31 03:24:35;;;;;;;4.13;3.20;;;3.80;99.90;;;;;;5094254;28;20126;-66
2022/03/31 03:27:01;;;;;;;4.45;3.22;;;4.00;99.90;;;;;;5076405;28;20160;-67
2022/03/31 03:29:27;;;;;;;5.18;3.30;;;3.60;99.90;;;;;;5095319;28;20044;-67
2022/03/31 03:31:53;;;;;;;5.20;3.20;;;3.50;99.90;;;;;;5094450;28;20480;-67
2022/03/31 03:34:19;;;;;;;4.38;2.80;;;3.80;99.90;;;;;;5094429;28;20048;-67
2022/03/31 03:36:45;;;;;;;4.40;3.60;;;3.60;99.90;;;;;;5092803;28;20046;-67
2022/03/31 03:39:11;;;;;;;4.70;3.47;;;3.60;99.90;;;;;;5094146;28;20050;-66
2022/03/31 03:41:38;;;;;;;3.85;3.30;;;3.50;99.90;;;;;;5094249;28;20040;-67
2022/03/31 03:44:04;;;;;;;5.22;3.45;;;3.60;99.90;;;;;;5093270;28;20063;-66
2022/03/31 03:46:31;;;;;;;5.40;3.70;;;3.60;99.90;;;;;;5092844;28;20550;-66
2022/03/31 03:48:56;;;;;;;6.43;4.28;;;3.60;99.90;;;;;;5093037;28;20447;-67
2022/03/31 03:51:24;;;;;;;6.18;4.47;;;3.60;99.90;;;;;;5092993;28;20083;-67
2022/03/31 03:53:50;;;;;;;6.50;4.50;;;3.60;99.90;;;;;;5092938;28;20476;-67
2022/03/31 03:56:17;;;;;;;6.72;5.38;;;3.90;99.90;;;;;;5093959;28;20044;-67
2022/03/31 03:58:43;;;;;;;7.10;4.95;;;3.70;99.90;;;;;;5093709;28;20496;-67
2022/03/31 04:01:09;;;;;;;8.32;5.30;;;4.00;99.90;;;;;;5093057;28;20063;-67
2022/03/31 04:03:35;;;;;;;5.80;4.78;;;3.60;99.90;;;;;;5093947;28;20048;-67
2022/03/31 04:06:01;;;;;;;6.20;5.53;;;3.10;99.90;;;;;;5094501;28;20055;-67
2022/03/31 04:08:26;;;;;;;6.00;4.63;;;3.90;99.90;;;;;;5093851;28;20056;-67
2022/03/31 04:10:52;;;;;;;6.30;5.47;;;3.60;99.90;;;;;;5092685;28;20128;-67
2022/03/31 04:13:18;;;;;;;5.95;4.57;;;3.50;99.90;;;;;;5094160;28;20109;-67
2022/03/31 04:15:44;;;;;;;5.30;4.32;;;4.60;99.90;;;;;;5094554;28;20432;-67
2022/03/31 04:18:10;;;;;;;5.22;4.43;;;3.50;99.90;;;;;;5092432;28;20075;-67
2022/03/31 04:20:36;;;;;;;6.68;4.40;;;3.30;99.90;;;;;;5093712;28;20040;-67
2022/03/31 04:23:02;;;;;;;4.80;3.67;;;4.20;99.90;;;;;;5092580;28;20048;-67
2022/03/31 04:25:28;;;;;;;5.50;4.68;;;3.70;99.90;;;;;;5094507;28;20063;-67
2022/03/31 04:27:54;;;;;;;5.57;4.05;;;3.40;99.90;;;;;;5092451;28;20476;-67
2022/03/31 04:30:21;;;;;;;5.15;4.30;;;3.40;99.90;;;;;;5092466;28;20051;-67
2022/03/31 04:32:47;;;;;;;4.50;3.88;;;3.70;99.90;;;;;;5092345;28;20127;-67
2022/03/31 04:35:15;;;;;;;4.38;3.97;;;3.30;99.90;;;;;;5093351;28;20430;-66
2022/03/31 04:37:40;;;;;;;4.32;3.50;;;2.30;99.90;;;;;;5095675;28;20079;-66
2022/03/31 04:40:08;;;;;;;4.13;3.58;;;3.80;99.90;;;;;;5097755;28;20079;-67
2022/03/31 04:42:34;;;;;;;4.45;3.15;;;3.40;99.90;;;;;;5097439;28;20507;-67
2022/03/31 04:45:02;;;;;;;5.30;3.58;;;3.30;99.90;;;;;;5096747;28;20055;-66
2022/03/31 04:47:31;;;;;;;4.93;4.13;;;3.90;99.90;;;;;;5096586;28;20055;-66
2022/03/31 04:49:57;;;;;;;3.78;3.35;;;3.40;99.90;;;;;;5097645;28;20044;-67
2022/03/31 04:52:23;;;;;;;4.18;3.38;;;3.40;99.90;;;;;;5079993;28;20498;-67
2022/03/31 04:54:49;;;;;;;4.57;3.25;;;4.20;99.90;;;;;;5097397;28;20044;-67
2022/03/31 04:57:18;;;;;;;5.32;4.05;;;3.40;99.90;;;;;;5097446;28;20044;-67
2022/03/31 04:59:44;;;;;;;3.70;3.20;;;3.40;99.90;;;;;;5079690;28;20484;-67
2022/03/31 05:02:11;;;;;;;3.95;3.33;;;3.60;99.90;;;;;;5079907;28;20131;-67
2022/03/31 05:04:37;;;;;;;5.05;3.65;;;3.40;99.90;;;;;;5097422;28;20059;-67
2022/03/31 05:07:03;;;;;;;3.50;3.20;;;3.60;99.90;;;;;;5097284;28;20055;-67
2022/03/31 05:09:29;;;;;;;3.67;3.08;;;3.40;99.90;;;;;;5097530;28;20052;-67
2022/03/31 05:11:55;;;;;;;4.00;3.60;;;3.70;99.90;;;;;;5097208;28;20411;-67
2022/03/31 05:14:21;;;;;;;3.88;3.47;;;4.40;99.90;;;;;;5096507;28;20040;-67
2022/03/31 05:16:47;;;;;;;3.85;3.45;;;3.40;99.90;;;;;;5095718;28;20044;-66
2022/03/31 05:19:12;;;;;;;3.38;3.08;;;3.40;99.90;;;;;;5097685;28;20380;-67
2022/03/31 05:21:38;;;;;;;3.25;2.83;;;3.90;99.90;;;;;;5095772;28;20089;-67
2022/03/31 05:24:05;;;;;;;3.05;2.10;;;4.30;99.90;;;;;;5079637;28;20043;-67
2022/03/31 05:26:31;;;;;;;2.75;2.50;;;3.40;99.90;;;;;;5095727;28;20563;-67
2022/03/31 05:28:57;;;;;;;2.80;2.33;;;3.20;99.90;;;;;;5096849;28;20044;-67
2022/03/31 05:31:23;;;;;;;3.25;2.90;;;3.30;99.90;;;;;;5096186;28;20093;-67
2022/03/31 05:33:49;;;;;;;2.95;2.53;;;3.30;99.90;;;;;;5095562;28;20123;-67
2022/03/31 05:36:15;;;;;;;2.97;2.25;;;3.60;99.90;;;;;;5096367;28;20032;-67
2022/03/31 05:38:40;;;;;;;3.05;2.67;;;3.40;99.90;;;;;;5095512;28;20155;-67
2022/03/31 05:41:06;;;;;;;3.58;2.92;;;3.30;99.90;;;;;;5097136;28;20044;-67
2022/03/31 05:43:32;;;;;;;3.28;2.97;;;3.30;99.90;;;;;;5097128;28;20150;-67
2022/03/31 05:45:57;;;;;;;3.97;3.58;;;3.30;99.90;;;;;;5096770;28;20047;-68
2022/03/31 05:48:23;;;;;;;3.30;3.00;;;3.50;99.90;;;;;;5094875;28;20476;-67
2022/03/31 05:50:49;;;;;;;3.22;2.92;;;3.20;99.90;;;;;;5096377;28;20087;-67
2022/03/31 05:53:15;;;;;;;3.40;2.65;;;3.20;99.90;;;;;;5095122;28;20044;-67
2022/03/31 05:55:41;;;;;;;3.80;3.50;;;3.80;99.90;;;;;;5094977;28;20048;-67
2022/03/31 05:58:08;;;;;;;3.92;3.53;;;3.20;99.90;;;;;;5096679;28;20043;-67
2022/03/31 06:00:34;;;;;;;3.15;2.85;;;3.20;99.90;;;;;;5096193;28;20047;-67
2022/03/31 06:02:59;;;;;;;3.88;3.58;;;3.20;99.90;;;;;;5096164;28;20051;-67
2022/03/31 06:05:25;;;;;;;3.85;3.45;;;3.20;99.90;;;;;;5077620;28;20091;-67
2022/03/31 06:07:52;;;;;;;4.93;3.55;;;3.10;99.90;;;;;;5095717;28;20044;-67
2022/03/31 06:10:19;;;;;;;3.85;3.35;;;3.10;99.90;;;;;;5096079;28;20084;-68
2022/03/31 06:12:45;;;;;;;5.20;4.30;;;3.10;99.90;;;;;;5095321;28;20059;-67
2022/03/31 06:15:11;;;;;;;4.35;3.95;;;3.00;99.90;;;;;;5094885;28;20040;-67
2022/03/31 06:17:41;;;;;;;4.55;4.13;;;4.50;99.90;;;;;;5095112;28;20464;-66
2022/03/31 06:20:08;;;;;;;6.45;4.85;;;2.70;99.90;;;;;;5094854;28;20048;-67
2022/03/31 06:22:34;;;;;;;6.95;4.63;;;3.10;99.90;;;;;;5095573;28;20039;-67
2022/03/31 06:25:00;;;;;;;4.63;4.20;;;2.70;99.90;;;;;;5094616;28;20182;-66
2022/03/31 06:27:26;;;;;;;5.90;5.03;;;3.40;99.90;;;;;;5094584;28;20040;-67
2022/03/31 06:29:52;;;;;;;5.72;5.15;;;3.00;99.90;;;;;;5095793;28;20143;-67
2022/03/31 06:32:18;;;;;;;5.65;4.70;;;3.50;99.90;;;;;;5095035;28;20083;-66
2022/03/31 06:34:44;;;;;;;6.25;5.63;;;3.10;99.90;;;;;;5095593;28;20044;-67
2022/03/31 06:37:11;;;;;;;4.90;4.07;;;3.10;99.90;;;;;;5095481;28;20044;-67
2022/03/31 06:39:36;;;;;;;5.30;4.80;;;3.20;99.90;;;;;;5094545;28;20369;-67
2022/03/31 06:42:04;;;;;;;4.95;4.45;;;3.10;99.90;;;;;;5096029;28;20105;-66
2022/03/31 06:44:30;;;;;;;6.28;4.90;;;3.10;99.90;;;;;;5095418;28;20087;-67
2022/03/31 06:46:55;;;;;;;5.68;5.10;;;3.10;99.90;;;;;;5094350;28;20044;-66
2022/03/31 06:49:21;;;;;;;5.53;4.85;;;3.60;99.90;;;;;;5094956;28;20051;-66
2022/03/31 06:51:47;;;;;;;5.75;4.65;;;3.90;99.90;;;;;;5094086;28;20131;-66
2022/03/31 06:54:13;;;;;;;6.43;5.22;;;3.20;99.90;;;;;;5093955;28;20233;-67
2022/03/31 06:56:38;;;;;;;6.43;5.10;;;3.20;99.90;;;;;;5093954;28;20079;-66
2022/03/31 06:59:04;;;;;;;5.88;4.82;;;3.70;99.90;;;;;;5093744;28;20127;-66
2022/03/31 07:01:31;;;;;;;5.55;4.95;;;3.20;99.90;;;;;;5076598;28;20048;-67
2022/03/31 07:03:56;;;;;;;5.95;4.88;;;3.30;99.90;;;;;;5095129;28;20476;-66
2022/03/31 07:06:23;;;;;;;6.55;5.50;;;3.30;99.90;;;;;;5094971;28;20051;-66
2022/03/31 07:08:48;;;;;;;6.32;5.20;;;3.50;99.90;;;;;;5093937;28;20048;-66
2022/03/31 07:11:14;;;;;;;5.53;5.03;;;3.20;99.90;;;;;;5095040;28;20055;-66
2022/03/31 07:13:41;;;;;;;8.25;5.55;;;3.50;99.90;;;;;;5077644;28;20369;-67
2022/03/31 07:16:07;;;;;;;7.60;5.88;;;3.40;99.90;;;;;;5043633;28;20044;-66
2022/03/31 07:18:33;;;;;;;5.93;4.45;;;3.70;99.90;;;;;;5094834;28;20146;-67
2022/03/31 07:20:59;;;;;;;6.95;4.47;;;3.60;99.90;;;;;;5093914;28;20130;-67
2022/03/31 07:23:26;;;;;;;8.90;6.47;;;3.30;99.90;;;;;;5094290;28;20129;-67
2022/03/31 07:25:56;;;;;;;5.20;4.25;;;3.40;99.90;;;;;;5094823;28;20054;-67
2022/03/31 07:28:23;;;;;;;7.40;4.28;;;3.30;99.90;;;;;;5093593;28;20056;-67
2022/03/31 07:30:50;;;;;;;4.57;3.83;;;3.70;99.90;;;;;;5094704;28;20051;-68
2022/03/31 07:33:19;;;;;;;6.05;3.92;;;3.60;99.90;;;;;;5095454;28;20043;-67
2022/03/31 07:35:47;;;;;;;5.57;3.90;;;3.30;99.90;;;;;;5094508;28;20040;-67
2022/03/31 07:38:14;;;;;;;5.38;3.40;;;3.40;99.90;;;;;;5094133;28;20052;-68
2022/03/31 07:40:41;;;;;;;4.72;3.10;;;3.20;99.90;;;;;;5095045;28;20044;-68
2022/03/31 07:43:07;;;;;;;3.53;2.47;;;3.40;99.90;;;;;;5095037;28;20081;-68
2022/03/31 07:45:34;;;;;;;3.88;2.80;;;3.80;99.90;;;;;;5094145;28;20365;-67
2022/03/31 07:48:02;;;;;;;3.78;2.60;;;3.40;99.90;;;;;;5094351;28;20083;-67
2022/03/31 07:50:28;;;;;;;4.10;2.60;;;3.50;99.90;;;;;;5094891;28;20044;-67
2022/03/31 07:52:55;;;;;;;2.80;2.03;;;4.10;99.90;;;;;;5094883;28;20118;-67
2022/03/31 07:55:21;;;;;;;3.63;2.50;;;3.40;99.90;;;;;;5094198;28;20101;-67
2022/03/31 07:57:48;;;;;;;3.60;2.50;;;3.40;99.90;;;;;;5092717;28;20052;-67
2022/03/31 08:00:16;;;;;;;3.50;2.00;;;3.30;99.90;;;;;;5094757;28;20052;-67
2022/03/31 08:02:49;;;;;;;2.67;2.00;;;3.30;99.90;;;;;;5094190;28;20075;-69
2022/03/31 08:05:17;;;;;;;4.20;2.38;;;3.50;99.90;;;;;;5093609;28;20048;-67
2022/03/31 08:07:43;;;;;;;6.10;4.15;;;3.60;99.90;;;;;;5093953;28;20052;-66
2022/03/31 08:10:09;;;;;;;3.05;2.28;;;3.20;99.90;;;;;;5094089;28;20048;-66
2022/03/31 08:12:35;;;;;;;3.72;2.45;;;3.10;99.90;;;;;;5093916;28;20457;-66
2022/03/31 08:15:05;;;;;;;3.40;2.45;;;3.10;99.90;;;;;;5093885;28;20048;-66
2022/03/31 08:17:31;;;;;;;2.92;2.53;;;3.10;99.90;;;;;;5094422;28;20052;-66
2022/03/31 08:19:57;;;;;;;2.90;2.15;;;3.00;99.90;;;;;;5093590;28;20444;-66
2022/03/31 08:22:23;;;;;;;3.72;2.92;;;3.10;99.90;;;;;;5076049;28;20094;-67
2022/03/31 08:24:49;;;;;;;4.45;2.72;;;3.10;99.90;;;;;;5092949;28;20048;-66
2022/03/31 08:27:15;;;;;;;3.83;3.10;;;2.90;99.90;;;;;;5093102;28;20456;-66
2022/03/31 08:29:41;;;;;;;4.68;3.65;;;3.20;99.90;;;;;;5093775;28;20079;-66
2022/03/31 08:32:08;;;;;;;5.57;3.30;;;2.80;99.90;;;;;;5093791;28;20050;-65
2022/03/31 08:34:34;;;;;;;5.78;3.25;;;2.90;99.90;;;;;;5092740;28;20055;-66
2022/03/31 08:37:00;;;;;;;5.40;3.42;;;2.90;99.90;;;;;;5092624;28;20044;-65
2022/03/31 08:39:25;;;;;;;5.55;3.55;;;2.90;99.90;;;;;;5093218;28;20052;-65
2022/03/31 08:41:52;;;;;;;5.82;4.13;;;3.50;99.90;;;;;;5075576;28;20048;-65
2022/03/31 08:44:20;;;;;;;5.65;4.00;;;2.80;99.90;;;;;;5092920;28;20480;-65
2022/03/31 08:46:48;;;;;;;6.07;4.50;;;2.40;99.90;;;;;;5092569;28;20126;-65
2022/03/31 08:49:13;;;;;;;5.57;3.50;;;2.70;99.90;;;;;;5074394;28;20059;-65
2022/03/31 08:51:42;;;;;;;8.32;5.85;;;2.70;99.90;;;;;;5074701;28;20048;-65
2022/03/31 08:54:08;;;;;;;7.28;4.93;;;2.70;99.90;;;;;;5092367;28;20465;-66
2022/03/31 08:56:34;;;;;;;7.07;5.40;;;2.80;99.90;;;;;;5074295;28;20052;-66
2022/03/31 08:59:00;;;;;;;7.45;5.28;;;2.40;99.90;;;;;;5093335;28;20396;-66
2022/03/31 09:01:27;;;;;;;8.07;5.28;;;2.70;99.90;;;;;;5093118;28;20044;-66
2022/03/31 09:03:53;;;;;;;8.07;5.65;;;2.70;99.90;;;;;;5091561;28;20079;-66
2022/03/31 09:06:23;;;;;;;8.35;5.85;;;2.70;99.90;;;;;;5092834;28;20092;-66
2022/03/31 09:09:00;;;;;;;10.18;6.88;;;2.70;99.90;;;;;;5092997;28;20138;-66
2022/03/31 09:11:33;;;;;;;11.55;7.50;;;3.00;99.90;;;;;;5092408;28;20087;-65
2022/03/31 09:14:00;;;;;;;12.00;7.63;;;2.70;99.90;;;;;;5092836;28;20048;-66
2022/03/31 09:16:30;;;;;;;12.18;7.90;;;2.90;99.90;;;;;;5092187;28;20084;-66
2022/03/31 09:19:09;;;;;;;12.13;7.30;;;2.40;99.90;;;;;;5091694;28;20052;-66
2022/03/31 09:21:57;;;;;;;12.20;6.72;;;2.70;99.90;;;;;;5092559;28;20044;-65
2022/03/31 09:24:26;;;;;;;10.75;6.40;;;2.70;99.90;;;;;;5095981;28;20125;-65
2022/03/31 09:26:53;;;;;;;6.20;4.50;;;2.60;99.90;;;;;;5096301;28;20040;-65
2022/03/31 09:29:21;;;;;;;4.47;3.00;;;2.60;99.90;;;;;;5096340;28;20062;-66
2022/03/31 09:31:47;;;;;;;4.65;3.10;;;2.60;99.90;;;;;;5096219;28;20103;-66
2022/03/31 09:34:13;;;;;;;3.30;2.47;;;3.10;99.90;;;;;;5096409;28;20087;-66
2022/03/31 09:36:43;;;;;;;3.92;2.80;;;2.50;99.90;;;;;;5095235;28;20089;-65
2022/03/31 09:39:13;;;;;;;4.85;2.67;;;2.50;99.90;;;;;;5095442;28;20130;-66
2022/03/31 09:41:43;;;;;;;7.80;4.60;;;2.50;99.90;;;;;;5095845;28;20040;-66
2022/03/31 09:44:13;;;;;;;10.73;5.15;;;3.80;99.90;;;;;;5096525;28;20055;-66
2022/03/31 09:46:40;;;;;;;17.25;10.07;;;2.00;99.90;;;;;;5095914;28;20040;-67
2022/03/31 09:49:16;;;;;;;16.13;9.65;;;3.70;99.90;;;;;;5095588;28;20079;-66
2022/03/31 09:51:45;;;;;;;18.00;9.85;;;2.90;99.90;;;;;;5097049;28;20063;-66
2022/03/31 09:54:11;;;;;;;18.38;10.32;;;2.10;99.90;;;;;;5095505;28;20067;-66
2022/03/31 09:56:40;;;;;;;14.02;8.80;;;2.30;99.90;;;;;;5096079;28;20096;-66
2022/03/31 09:59:12;;;;;;;11.90;7.32;;;2.20;99.90;;;;;;5096037;28;20388;-66
2022/03/31 10:01:39;;;;;;;11.82;7.15;;;2.20;99.90;;;;;;5077580;28;20396;-66
2022/03/31 10:04:09;;;;;;;9.90;6.88;;;2.20;99.90;;;;;;5095719;28;20125;-66
2022/03/31 10:06:36;;;;;;;12.15;7.55;;;1.80;99.90;;;;;;5096162;28;20052;-66
2022/03/31 10:09:03;;;;;;;11.20;6.82;;;1.80;99.90;;;;;;5095918;28;20404;-66
2022/03/31 10:11:30;;;;;;;13.02;8.35;;;2.10;99.90;;;;;;5097087;28;20059;-66
2022/03/31 10:14:18;;;;;;;16.02;9.50;;;1.90;99.90;;;;;;5095925;28;20507;-66
2022/03/31 10:16:50;;;;;;;15.40;9.52;;;2.10;99.90;;;;;;5094625;28;20044;-66
2022/03/31 10:19:30;;;;;;;14.25;8.60;;;3.60;99.90;;;;;;5096720;28;20200;-66
2022/03/31 10:25:00;;;;;;;14.75;8.45;;;2.00;99.90;;;;;;5095948;28;20048;-66
2022/03/31 10:27:28;;;;;;;12.80;7.93;;;2.40;99.90;;;;;;5095825;28;20135;-66
2022/03/31 10:30:06;;;;;;;12.65;8.10;;;1.70;99.90;;;;;;5094899;28;20496;-67
2022/03/31 10:32:32;;;;;;;11.07;7.32;;;1.60;99.90;;;;;;5095903;28;20097;-67
2022/03/31 10:34:58;;;;;;;9.15;6.78;;;3.00;99.90;;;;;;5094664;28;20044;-68
2022/03/31 10:37:38;;;;;;;8.73;6.38;;;1.80;99.90;;;;;;5095724;28;20080;-68
2022/03/31 10:40:08;;;;;;;7.47;4.88;;;1.70;99.90;;;;;;5094474;28;20048;-68
2022/03/31 10:42:34;;;;;;;7.07;5.00;;;1.70;99.90;;;;;;5095591;28;20055;-67
2022/03/31 10:45:07;;;;;;;6.63;4.47;;;1.50;99.90;;;;;;5094369;28;20044;-66
2022/03/31 10:47:35;;;;;;;7.10;5.00;;;1.70;99.90;;;;;;5095258;28;20132;-66
2022/03/31 10:50:01;;;;;;;6.10;3.78;;;1.50;99.90;;;;;;5095448;28;20048;-67
2022/03/31 10:52:28;;;;;;;4.57;3.75;;;1.60;99.90;;;;;;5095338;28;20044;-67
2022/03/31 10:55:06;;;;;;;5.45;4.43;;;1.80;99.90;;;;;;5095031;28;20047;-66
2022/03/31 10:57:59;;;;;;;5.75;3.75;;;1.60;99.90;;;;;;5095295;28;20178;-66
2022/03/31 11:00:26;;;;;;;6.47;3.88;;;1.40;99.90;;;;;;5092058;28;20040;-66
2022/03/31 11:02:54;;;;;;;5.70;4.18;;;1.60;99.90;;;;;;5094007;28;20055;-66
2022/03/31 11:05:25;;;;;;;4.90;3.20;;;1.60;99.90;;;;;;5093907;28;20052;-66
2022/03/31 11:08:02;;;;;;;5.25;3.22;;;1.90;99.90;;;;;;5095003;28;20139;-66
2022/03/31 11:10:27;;;;;;;5.30;3.95;;;1.60;99.90;;;;;;5093787;28;20043;-65
2022/03/31 11:12:53;;;;;;;4.88;3.60;;;1.60;99.90;;;;;;5093898;28;20054;-66
2022/03/31 11:15:19;;;;;;;5.13;3.53;;;2.00;99.90;;;;;;5094383;28;20384;-66
2022/03/31 11:17:47;;;;;;;6.28;4.25;;;1.60;99.90;;;;;;5094765;28;20551;-66
2022/03/31 11:20:16;;;;;;;5.20;3.47;;;3.00;99.90;;;;;;5093882;28;20102;-66
2022/03/31 11:22:54;;;;;;;5.78;3.85;;;1.90;99.90;;;;;;5094821;28;20101;-66
2022/03/31 11:25:21;;;;;;;5.97;4.03;;;1.70;99.90;;;;;;5094442;28;20140;-66
2022/03/31 11:27:48;;;;;;;5.95;4.57;;;1.70;99.90;;;;;;5076639;28;20055;-66
2022/03/31 11:30:22;;;;;;;5.90;4.20;;;1.50;99.90;;;;;;5094465;28;20085;-66
2022/03/31 11:32:58;;;;;;;5.70;4.15;;;1.70;99.90;;;;;;5093289;28;20052;-66
2022/03/31 11:35:26;;;;;;;7.05;5.00;;;1.70;99.90;;;;;;5094579;28;20044;-66
2022/03/31 11:37:55;;;;;;;7.07;5.28;;;1.80;99.90;;;;;;5093327;28;20044;-66
2022/03/31 11:40:30;;;;;;;8.23;5.38;;;1.70;99.90;;;;;;5094757;28;20036;-67
2022/03/31 11:42:58;;;;;;;6.53;4.88;;;1.60;99.90;;;;;;5093773;28;20434;-67
2022/03/31 11:45:44;;;;;;;6.95;4.25;;;1.70;99.90;;;;;;5093470;28;20048;-67
2022/03/31 11:48:16;;;;;;;6.70;5.18;;;1.60;99.90;;;;;;5094687;28;20120;-67
2022/03/31 11:50:56;;;;;;;10.95;7.57;;;1.70;99.90;;;;;;5094355;28;20052;-67
2022/03/31 11:53:28;;;;;;;6.63;5.28;;;1.60;99.90;;;;;;5093969;28;20377;-67
2022/03/31 11:55:58;;;;;;;8.52;5.75;;;1.70;99.90;;;;;;5094176;28;20040;-67
2022/03/31 11:58:23;;;;;;;9.05;6.00;;;1.70;99.90;;;;;;5094257;28;20047;-67
2022/03/31 12:00:50;;;;;;;9.18;6.72;;;2.60;99.90;;;;;;5094452;28;20046;-67
2022/03/31 12:03:17;;;;;;;7.65;5.97;;;1.70;99.90;;;;;;5092637;28;20112;-67
2022/03/31 12:05:55;;;;;;;7.40;5.40;;;1.70;99.90;;;;;;5092976;28;20066;-68
2022/03/31 12:08:21;;;;;;;9.13;7.00;;;1.80;99.90;;;;;;5094131;28;20048;-67
2022/03/31 12:10:50;;;;;;;9.55;6.97;;;1.60;99.90;;;;;;5094378;28;20044;-67
2022/03/31 12:13:18;;;;;;;11.95;8.07;;;2.10;99.90;;;;;;5094859;28;20456;-67
2022/03/31 12:15:43;;;;;;;9.13;6.47;;;2.20;99.90;;;;;;5076238;28;20488;-67
2022/03/31 12:18:13;;;;;;;11.63;8.45;;;1.60;99.90;;;;;;5092670;28;20043;-67
2022/03/31 12:20:39;;;;;;;12.40;8.35;;;1.90;99.90;;;;;;5093943;28;20048;-67
2022/03/31 12:23:20;;;;;;;13.23;8.45;;;1.90;99.90;;;;;;5093556;28;20178;-67
2022/03/31 12:25:47;;;;;;;11.85;8.70;;;1.90;99.90;;;;;;5075764;28;20056;-67
2022/03/31 12:28:13;;;;;;;11.27;8.63;;;2.50;99.90;;;;;;5093833;28;20043;-67
2022/03/31 12:30:45;;;;;;;11.80;8.68;;;2.00;99.90;;;;;;5093817;28;20052;-67
2022/03/31 12:33:23;;;;;;;11.90;8.07;;;2.40;99.90;;;;;;5076041;28;20048;-67
2022/03/31 12:36:02;;;;;;;14.32;9.27;;;2.10;99.90;;;;;;5092611;28;20125;-67
2022/03/31 12:38:46;;;;;;;13.52;7.90;;;2.10;99.90;;;;;;5092488;28;20044;-66
2022/03/31 12:41:34;;;;;;;11.27;7.20;;;2.20;99.90;;;;;;5093282;28;20040;-67
2022/03/31 12:44:12;;;;;;;14.98;10.65;;;2.10;99.90;;;;;;5093943;28;20500;-67
2022/03/31 12:46:52;;;;;;;13.20;9.25;;;2.10;99.90;;;;;;5093700;28;20040;-67
2022/03/31 12:49:20;;;;;;;12.52;8.73;;;2.10;99.90;;;;;;5093800;28;20560;-67
2022/03/31 12:51:57;;;;;;;12.32;9.48;;;2.70;99.90;;;;;;5092533;28;20456;-67
2022/03/31 12:54:35;;;;;;;11.63;8.30;;;2.20;99.90;;;;;;5094456;28;20441;-67
2022/03/31 12:57:06;;;;;;;14.20;9.70;;;2.20;99.90;;;;;;5094386;28;20080;-67
2022/03/31 12:59:34;;;;;;;14.05;9.40;;;2.30;99.90;;;;;;5095622;28;20492;-67
2022/03/31 13:02:06;;;;;;;12.98;8.50;;;2.70;99.90;;;;;;5097353;28;20430;-67
2022/03/31 13:04:33;;;;;;;11.82;8.77;;;2.30;99.90;;;;;;5097318;28;20051;-66